createdAt,value
2023-03-21T00:04:21.350Z,27.63
2023-03-21T00:09:43.247Z,31.38
2023-03-21T00:15:10.334Z,31.55
2023-03-21T00:20:33.495Z,30.75
2023-03-21T00:25:55.489Z,29.92
2023-03-21T00:31:18.227Z,31.17
2023-03-21T00:36:40.152Z,29.50
2023-03-21T00:42:02.363Z,29.95
2023-03-21T00:47:25.915Z,31.65
2023-03-21T00:52:47.900Z,32.80
2023-03-21T00:58:10.111Z,33.97
2023-03-21T01:03:33.494Z,34.67
2023-03-21T01:08:55.368Z,31.58
2023-03-21T01:14:22.908Z,32.88
2023-03-21T01:19:52.027Z,31.33
2023-03-21T01:25:22.269Z,30.85
2023-03-21T01:30:50.286Z,32.88
2023-03-21T01:36:24.903Z,30.92
2023-03-21T01:41:47.179Z,31.33
2023-03-21T01:47:12.281Z,31.20
2023-03-21T01:52:38.841Z,30.77
2023-03-21T01:58:06.352Z,30.75
2023-03-21T02:03:36.157Z,30.15
2023-03-21T02:09:05.307Z,28.95
2023-03-21T02:14:29.556Z,26.45
2023-03-21T02:20:32.937Z,33.50
2023-03-21T02:26:12.816Z,29.48
2023-03-21T02:32:05.966Z,28.38
2023-03-21T02:37:58.273Z,29.95
2023-03-21T02:43:37.195Z,28.08
2023-03-21T02:49:03.015Z,30.52
2023-03-21T02:54:41.855Z,28.73
2023-03-21T03:00:16.981Z,28.80
2023-03-21T03:05:48.151Z,28.42
2023-03-21T03:11:27.927Z,26.67
2023-03-21T03:17:08.723Z,25.20
2023-03-21T03:23:03.671Z,26.95
2023-03-21T03:28:30.297Z,27.05
2023-03-21T03:39:18.124Z,24.80
2023-03-21T03:44:40.134Z,24.50
2023-03-21T03:50:10.890Z,24.92
2023-03-21T03:55:33.752Z,24.45
2023-03-21T04:00:56.007Z,24.45
2023-03-21T04:06:19.353Z,23.58
2023-03-21T04:11:41.221Z,22.55
2023-03-21T04:17:03.081Z,23.10
2023-03-21T04:22:25.265Z,21.17
2023-03-21T04:27:47.188Z,21.02
2023-03-21T04:33:09.072Z,26.77
2023-03-21T04:38:31.031Z,20.75
2023-03-21T04:43:54.334Z,20.83
2023-03-21T04:49:16.321Z,21.85
2023-03-21T04:54:38.160Z,20.90
2023-03-21T04:59:59.990Z,18.30
2023-03-21T05:05:21.884Z,20.17
2023-03-21T05:10:43.811Z,19.95
2023-03-21T05:16:06.211Z,17.75
2023-03-21T05:21:28.066Z,19.27
2023-03-21T05:26:50.018Z,19.05
2023-03-21T05:32:11.842Z,15.23
2023-03-21T05:37:33.795Z,16.92
2023-03-21T05:42:55.666Z,16.40
2023-03-21T05:48:17.553Z,15.25
2023-03-21T05:53:39.365Z,16.92
2023-03-21T05:59:01.300Z,13.90
2023-03-21T06:04:23.185Z,16.52
2023-03-21T06:09:45.121Z,14.15
2023-03-21T06:15:07.448Z,15.50
2023-03-21T06:20:29.361Z,13.48
2023-03-21T06:25:51.199Z,13.63
2023-03-21T06:31:13.132Z,13.93
2023-03-21T06:36:35.047Z,14.07
2023-03-21T06:41:57.609Z,12.77
2023-03-21T06:47:19.463Z,12.20
2023-03-21T06:52:41.399Z,12.85
2023-03-21T06:58:03.282Z,15.20
2023-03-21T07:03:25.302Z,11.45
2023-03-21T07:08:47.210Z,12.25
2023-03-21T07:14:09.067Z,10.95
2023-03-21T07:19:30.961Z,13.18
2023-03-21T07:25:04.110Z,9.00
2023-03-21T07:30:27.128Z,11.35
2023-03-21T07:35:53.761Z,8.75
2023-03-21T07:46:38.300Z,7.97
2023-03-21T07:52:00.730Z,9.93
2023-03-21T07:57:22.865Z,9.13
2023-03-21T08:02:44.841Z,11.23
2023-03-21T08:08:07.502Z,9.30
2023-03-21T08:13:29.481Z,8.18
2023-03-21T08:18:51.312Z,8.65
2023-03-21T08:24:13.146Z,8.82
2023-03-21T08:29:35.018Z,10.05
2023-03-21T08:35:03.379Z,11.73
2023-03-21T08:40:25.273Z,8.65
2023-03-21T08:45:47.207Z,8.50
2023-03-21T08:51:09.114Z,9.63
2023-03-21T08:56:30.957Z,8.18
2023-03-21T09:01:52.879Z,7.35
2023-03-21T09:07:14.760Z,7.43
2023-03-21T09:12:36.721Z,7.35
2023-03-21T09:17:59.425Z,8.15
2023-03-21T09:23:21.328Z,9.07
2023-03-21T09:28:43.231Z,8.82
2023-03-21T09:34:05.220Z,10.13
2023-03-21T09:39:27.183Z,8.05
2023-03-21T09:44:58.396Z,8.60
2023-03-21T09:50:24.826Z,9.55
2023-03-21T09:55:47.137Z,8.68
2023-03-21T10:01:08.992Z,7.80
2023-03-21T10:06:31.316Z,10.32
2023-03-21T10:11:56.857Z,17.05
2023-03-21T10:17:41.780Z,9.77
2023-03-21T10:23:07.003Z,8.60
2023-03-21T10:28:49.825Z,6.43
2023-03-21T10:34:26.400Z,5.85
2023-03-21T10:39:53.843Z,4.97
2023-03-21T10:45:19.299Z,6.07
2023-03-21T10:50:42.995Z,6.90
2023-03-21T10:56:09.807Z,7.25
2023-03-21T11:01:37.522Z,7.18
2023-03-21T11:07:05.839Z,8.30
2023-03-21T11:12:34.765Z,5.15
2023-03-21T11:17:58.032Z,6.68
2023-03-21T11:23:21.201Z,5.63
2023-03-21T11:28:43.553Z,5.97
2023-03-21T11:34:08.467Z,4.93
2023-03-21T11:39:33.797Z,5.55
2023-03-21T11:45:12.479Z,5.32
2023-03-21T11:50:37.450Z,4.70
2023-03-21T11:56:25.368Z,5.28
2023-03-21T12:02:16.197Z,3.95
2023-03-21T12:07:51.519Z,4.60
2023-03-21T12:13:37.089Z,6.43
2023-03-21T12:19:20.584Z,6.13
2023-03-21T12:24:54.243Z,10.35
2023-03-21T12:30:21.860Z,6.00
2023-03-21T12:35:52.497Z,5.55
2023-03-21T12:41:28.420Z,5.20
2023-03-21T12:47:12.157Z,6.13
2023-03-21T12:52:39.165Z,5.70
2023-03-21T12:58:15.678Z,5.65
2023-03-21T13:14:41.882Z,9.57
2023-03-21T13:20:45.864Z,6.70
2023-03-21T13:26:11.924Z,6.47
2023-03-21T13:31:45.376Z,5.23
2023-03-21T13:37:18.035Z,4.15
2023-03-21T13:42:45.326Z,4.90
2023-03-21T13:48:27.965Z,4.43
2023-03-21T13:54:08.141Z,3.08
2023-03-21T13:59:40.945Z,3.85
2023-03-21T14:05:07.659Z,3.47
2023-03-21T14:10:42.162Z,6.05
2023-03-21T14:16:10.563Z,5.97
2023-03-21T14:21:35.768Z,7.38
2023-03-21T14:26:57.896Z,9.88
2023-03-21T14:32:25.311Z,5.60
2023-03-21T14:37:47.895Z,6.47
2023-03-21T14:43:11.878Z,7.07
2023-03-21T14:48:34.797Z,6.60
2023-03-21T14:53:57.447Z,6.57
2023-03-21T14:59:23.380Z,6.15
2023-03-21T15:04:57.683Z,8.60
2023-03-21T15:10:20.064Z,8.40
2023-03-21T15:15:42.994Z,9.75
2023-03-21T15:21:10.522Z,9.07
2023-03-21T15:26:32.514Z,8.43
2023-03-21T15:31:54.461Z,13.75
2023-03-21T15:37:23.387Z,6.88
2023-03-21T15:42:45.387Z,6.18
2023-03-21T15:48:12.886Z,6.10
2023-03-21T15:53:37.245Z,5.85
2023-03-21T15:59:02.013Z,8.25
2023-03-21T16:04:24.072Z,6.03
2023-03-21T16:09:46.848Z,6.88
2023-03-21T16:15:09.167Z,6.32
2023-03-21T16:20:37.068Z,6.72
2023-03-21T16:25:59.176Z,7.25
2023-03-21T16:31:27.512Z,8.40
2023-03-21T16:36:49.366Z,8.00
2023-03-21T16:42:12.071Z,9.30
2023-03-21T16:47:33.998Z,8.38
2023-03-21T16:52:57.411Z,9.80
2023-03-21T16:58:19.254Z,9.65
2023-03-21T17:03:41.607Z,8.57
2023-03-21T17:09:03.590Z,9.90
2023-03-21T17:14:25.482Z,9.27
2023-03-21T17:19:47.388Z,19.77
2023-03-21T17:25:09.381Z,9.55
2023-03-21T17:30:38.204Z,17.58
2023-03-21T17:36:00.576Z,17.52
2023-03-21T17:41:22.425Z,17.63
2023-03-21T17:46:44.681Z,13.95
2023-03-21T17:52:06.571Z,18.90
2023-03-21T17:57:28.438Z,14.52
2023-03-21T18:02:51.296Z,20.67
2023-03-21T18:08:13.268Z,16.20
2023-03-21T18:13:35.158Z,17.30
2023-03-21T18:18:57.170Z,17.40
2023-03-21T18:24:19.050Z,17.58
2023-03-21T18:35:23.013Z,15.38
2023-03-21T18:40:44.909Z,15.77
2023-03-21T18:46:06.994Z,17.88
2023-03-21T18:51:28.826Z,15.68
2023-03-21T19:02:33.342Z,22.15
2023-03-21T19:07:55.397Z,27.63
2023-03-21T19:13:17.320Z,24.88
2023-03-21T19:18:53.851Z,22.38
2023-03-21T19:24:27.198Z,25.20
2023-03-21T19:30:06.572Z,47.47
2023-03-21T19:35:32.346Z,41.42
2023-03-21T19:40:59.769Z,36.08
2023-03-21T19:46:22.345Z,50.65
2023-03-21T19:51:44.196Z,47.70
2023-03-21T19:57:07.309Z,64.82
2023-03-21T20:02:37.125Z,62.65
2023-03-21T20:07:59.140Z,45.17
2023-03-21T20:13:20.951Z,40.08
2023-03-21T20:18:42.812Z,44.50
2023-03-21T20:24:05.042Z,48.90
2023-03-21T20:35:20.804Z,45.65
2023-03-21T20:40:49.283Z,44.22
2023-03-21T20:46:12.123Z,44.10
2023-03-21T20:57:15.778Z,37.25
2023-03-21T21:02:37.582Z,45.55
2023-03-21T21:08:01.100Z,42.40
2023-03-21T21:13:22.978Z,39.58
2023-03-21T21:18:44.810Z,41.00
2023-03-21T21:24:07.599Z,41.78
2023-03-21T21:29:29.632Z,42.17
2023-03-21T21:34:51.489Z,41.92
2023-03-21T21:40:13.524Z,42.38
2023-03-21T21:45:35.488Z,44.28
2023-03-21T21:50:57.512Z,37.90
2023-03-21T21:56:19.715Z,37.15
2023-03-21T22:01:42.065Z,39.17
2023-03-21T22:07:03.922Z,41.30
2023-03-21T22:12:25.796Z,46.42
2023-03-21T22:17:47.657Z,43.20
2023-03-21T22:23:09.498Z,44.65
2023-03-21T22:28:31.363Z,47.03
2023-03-21T22:33:53.184Z,49.72
2023-03-21T22:39:15.013Z,48.58
2023-03-21T22:44:36.855Z,55.03
2023-03-21T22:49:59.110Z,56.13
2023-03-21T22:55:21.009Z,52.35
2023-03-21T23:00:42.937Z,48.45
2023-03-21T23:06:04.950Z,52.35
2023-03-21T23:11:26.813Z,51.20
2023-03-21T23:16:49.701Z,56.05
2023-03-21T23:22:11.593Z,55.15
2023-03-21T23:27:33.471Z,55.33
2023-03-21T23:32:55.755Z,51.35
2023-03-21T23:38:17.616Z,57.53
2023-03-21T23:43:39.612Z,55.70
2023-03-21T23:49:01.603Z,59.33
2023-03-21T23:54:23.449Z,64.25
2023-03-21T23:59:45.295Z,64.70
